»·PEaware :: N508DB KSNA-KBFL

N508DB :: KSNA-KBFL

FLIGHT INFORMATION

Flight Status: Arrived
Operator: Privately registered:
United States
More flights under this callsign
Pilot: John H. (10732)
Aircraft: Unknown
(LEG2)
More flights by this aircraft type
Origin: KSNA John Wayne-Orange Co
United States
Destination: KBFL Meadows
United States
More flights between these airports :: More routes between these airports
Route: +SLI V459 LHS T259 EHF
File this flight plan on PilotEdge
Remarks:
Altitude:
(Current/Filed)
18,000ft
Speed:
(Current/Filed)
250kts
Departed: 29-May-19 03:45 PM
Arrived: 29-May-19 04:25 PM
Distance/Time
Traveled:
121nm/0:40
Distance/Time
To Go:
Arrived

Flight Plot

Page will automatically refresh every two minutes.

Flight plan parsing failed; only flown route is shown


Map Options




Map Legend


Flown Route
Filed Route
Departure Airport
Arrival Airport
Navaid (VOR, NDB)
Fix

Horizontal Profiles

Position Reports

Time Latitude Longitude Heading Altitude Ground
Speed
29-May-19 15:35 33.675411 -117.871531 207 59ft 0kts
29-May-19 15:36 33.675408 -117.871533 207 59ft 0kts
29-May-19 15:37 33.675404 -117.871535 207 59ft 0kts
29-May-19 15:38 33.675404 -117.871535 207 59ft 0kts
29-May-19 15:39 33.675404 -117.871535 207 59ft 0kts
29-May-19 15:40 33.675403 -117.871536 207 59ft 0kts
29-May-19 15:41 33.675403 -117.871536 207 59ft 0kts
29-May-19 15:42 33.675157 -117.871254 100 59ft 4kts
29-May-19 15:43 33.680803 -117.867241 28 59ft 24kts
29-May-19 15:44 33.678835 -117.866806 207 59ft 72kts
29-May-19 15:45 33.652424 -117.898928 230 1611ft 151kts
29-May-19 15:46 33.622547 -117.948988 235 2075ft 216kts
29-May-19 15:47 33.589958 -118.006346 234 3658ft 177kts
29-May-19 15:48 33.564609 -118.050935 233 5826ft 150kts
29-May-19 15:49 33.578480 -118.091150 355 6466ft 226kts
29-May-19 15:50 33.632191 -118.080288 6 9001ft 174kts
29-May-19 15:51 33.678908 -118.072141 5 11221ft 179kts
29-May-19 15:52 33.733821 -118.063053 6 13338ft 218kts
29-May-19 15:53 33.793782 -118.060771 332 15829ft 214kts
29-May-19 15:54 33.856272 -118.097025 333 16005ft 276kts
29-May-19 15:55 33.928922 -118.138596 333 16002ft 297kts
29-May-19 15:56 34.003885 -118.181763 333 16001ft 300kts
29-May-19 15:57 34.079038 -118.225152 333 15998ft 297kts
29-May-19 15:58 34.153226 -118.268119 333 15997ft 295kts
29-May-19 15:59 34.227093 -118.310953 333 15994ft 294kts
29-May-19 16:00 34.300979 -118.353872 333 15998ft 293kts
29-May-19 16:01 34.374436 -118.396624 333 16013ft 293kts
29-May-19 16:02 34.447722 -118.439359 333 16011ft 293kts
29-May-19 16:03 34.521265 -118.482330 333 15991ft 294kts
29-May-19 16:04 34.597776 -118.527119 333 15056ft 313kts
29-May-19 16:05 34.676611 -118.573360 333 14060ft 317kts
29-May-19 16:06 34.747510 -118.618146 331 13154ft 316kts
29-May-19 16:07 34.825150 -118.668466 331 12155ft 316kts
29-May-19 16:08 34.902667 -118.718536 330 11198ft 312kts
29-May-19 16:09 34.977330 -118.766816 330 11002ft 296kts
29-May-19 16:10 35.050560 -118.814224 330 10307ft 300kts
29-May-19 16:11 35.123497 -118.861559 330 9302ft 292kts
29-May-19 16:12 35.194260 -118.907583 330 8300ft 283kts
29-May-19 16:13 35.263128 -118.952469 330 7300ft 278kts
29-May-19 16:14 35.330914 -118.996736 330 6299ft 274kts
29-May-19 16:15 35.397523 -119.040317 330 5307ft 268kts
29-May-19 16:16 35.407452 -119.112701 224 4473ft 262kts
29-May-19 16:17 35.343861 -119.149528 162 3189ft 241kts
29-May-19 16:18 35.309958 -119.098744 72 3066ft 178kts
29-May-19 16:19 35.337053 -119.060793 43 3024ft 147kts
29-May-19 16:20 35.366695 -119.024557 43 1684ft 140kts
29-May-19 16:21 35.393642 -119.011897 344 1567ft 107kts
29-May-19 16:22 35.415872 -119.034517 314 779ft 96kts
29-May-19 16:23 35.433299 -119.055576 314 510ft 50kts
29-May-19 16:24 35.436332 -119.057700 64 510ft 14kts
29-May-19 16:25 35.435236 -119.054010 127 510ft 0kts

Navigation Log

Ident Type
Flight plan parsing failed, navigation log unavailable